TimeMDT,TemperatureF,Dew PointF,Humidity,Sea Level PressureIn,VisibilityMPH,Wind Direction,Wind SpeedMPH,Gust SpeedMPH,PrecipitationIn,Events,Conditions,WindDirDegrees,DateUTC
12:55 AM,75.0,68.0,79,29.85,10.0,East,6.9,-,0.00,,Partly Cloudy,90,2013-09-07 06:55:00
1:55 AM,77.0,66.0,69,29.87,10.0,Calm,Calm,-,N/A,,Clear,0,2013-09-07 07:55:00
2:18 AM,78.8,64.4,61,29.95,10.0,NE,5.8,-,N/A,Thunderstorm,Clear,50,2013-09-07 08:18:00
2:33 AM,78.8,64.4,61,29.94,10.0,ESE,6.9,-,N/A,,Clear,120,2013-09-07 08:33:00
2:55 AM,75.9,66.0,71,29.85,10.0,NNE,8.1,-,N/A,,Clear,30,2013-09-07 08:55:00
3:55 AM,75.9,66.0,71,29.83,10.0,NE,9.2,-,N/A,,Clear,50,2013-09-07 09:55:00
4:55 AM,75.0,64.0,69,29.87,10.0,Calm,Calm,-,N/A,,Clear,0,2013-09-07 10:55:00
5:34 AM,71.6,64.4,78,29.98,10.0,SW,8.1,-,N/A,Thunderstorm,Partly Cloudy,230,2013-09-07 11:34:00
5:55 AM,73.0,66.0,79,29.91,10.0,WSW,8.1,-,N/A,Thunderstorm,Mostly Cloudy,250,2013-09-07 11:55:00
6:11 AM,71.6,66.2,83,29.97,10.0,SW,3.5,-,0.00,Rain,Light Rain,230,2013-09-07 12:11:00
6:55 AM,71.1,66.9,87,29.90,10.0,North,4.6,-,0.00,,Partly Cloudy,10,2013-09-07 12:55:00
7:55 AM,70.0,64.9,84,29.91,10.0,Calm,Calm,-,N/A,,Clear,0,2013-09-07 13:55:00
8:55 AM,80.1,64.9,60,29.93,10.0,East,5.8,-,N/A,,Clear,90,2013-09-07 14:55:00
9:55 AM,84.9,64.0,49,29.94,10.0,ESE,6.9,-,N/A,,Clear,110,2013-09-07 15:55:00
10:55 AM,88.0,64.0,45,29.94,10.0,ESE,9.2,-,N/A,,Clear,120,2013-09-07 16:55:00
11:55 AM,91.0,64.0,41,29.93,10.0,ESE,13.8,20.7,N/A,,Clear,110,2013-09-07 17:55:00
12:55 PM,93.9,61.0,33,29.92,10.0,SSE,9.2,17.3,N/A,,Clear,150,2013-09-07 18:55:00
1:55 PM,93.9,61.0,33,29.90,10.0,SE,10.4,16.1,N/A,,Clear,130,2013-09-07 19:55:00
2:55 PM,96.1,59.0,29,29.88,10.0,SSE,9.2,18.4,N/A,,Clear,160,2013-09-07 20:55:00
3:55 PM,96.1,59.0,29,29.87,10.0,SSE,15.0,-,N/A,,Clear,150,2013-09-07 21:55:00
4:55 PM,95.0,59.0,30,29.86,10.0,SE,12.7,20.7,N/A,,Clear,130,2013-09-07 22:55:00
5:55 PM,93.0,59.0,32,29.85,10.0,SE,11.5,23.0,N/A,,Clear,130,2013-09-07 23:55:00
6:55 PM,89.1,61.0,39,29.84,10.0,SE,11.5,19.6,N/A,,Clear,130,2013-09-08 00:55:00
7:55 PM,84.0,59.0,43,29.86,10.0,East,9.2,-,N/A,,Clear,100,2013-09-08 01:55:00
8:55 PM,82.9,61.0,47,29.87,10.0,East,11.5,-,N/A,,Clear,100,2013-09-08 02:55:00
9:55 PM,80.1,62.1,54,29.88,10.0,East,9.2,-,N/A,,Clear,100,2013-09-08 03:55:00
10:55 PM,77.0,62.1,60,29.88,10.0,East,8.1,-,N/A,,Clear,100,2013-09-08 04:55:00
11:55 PM,75.9,62.1,62,29.88,10.0,East,6.9,-,N/A,,Scattered Clouds,90,2013-09-08 05:55:00